createdAt,value
2023-01-10T00:03:00.049Z,99463.21
2023-01-10T00:08:07.507Z,99464.29
2023-01-10T00:13:25.973Z,99464.67
2023-01-10T00:18:29.698Z,99467.89
2023-01-10T00:23:33.482Z,99470.52
2023-01-10T00:28:39.684Z,99476.21
2023-01-10T00:33:44.214Z,99478.72
2023-01-10T00:38:47.966Z,99486.66
2023-01-10T00:43:57.706Z,99488.56
2023-01-10T00:49:01.494Z,99491.85
2023-01-10T00:54:10.537Z,99495.18
2023-01-10T00:59:14.419Z,99502.29
2023-01-10T01:04:18.999Z,99509.30
2023-01-10T01:09:22.878Z,99515.31
2023-01-10T01:14:27.245Z,99522.99
2023-01-10T01:19:31.010Z,99529.11
2023-01-10T01:24:36.521Z,99537.77
2023-01-10T01:29:43.351Z,99534.92
2023-01-10T01:34:48.153Z,99542.67
2023-01-10T01:39:51.893Z,99546.23
2023-01-10T01:45:35.190Z,99546.48
2023-01-10T01:51:31.639Z,99550.77
2023-01-10T01:56:45.038Z,99549.12
2023-01-10T02:01:52.042Z,99556.34
2023-01-10T02:06:57.628Z,99556.56
2023-01-10T02:12:01.999Z,99559.31
2023-01-10T02:17:08.506Z,99568.11
2023-01-10T02:22:42.893Z,99567.73
2023-01-10T02:28:14.196Z,99567.92
2023-01-10T02:33:21.786Z,99576.48
2023-01-10T02:38:54.761Z,99583.62
2023-01-10T02:44:19.091Z,99595.08
2023-01-10T02:49:24.422Z,99598.10
2023-01-10T02:54:31.025Z,99613.98
2023-01-10T02:59:57.583Z,99624.27
2023-01-10T03:05:17.299Z,99632.14
2023-01-10T03:10:33.129Z,99640.98
2023-01-10T03:15:38.645Z,99645.77
2023-01-10T03:20:44.660Z,99654.79
2023-01-10T03:25:50.393Z,99662.30
2023-01-10T03:31:08.034Z,99673.21
2023-01-10T03:36:38.406Z,99686.67
2023-01-10T03:41:54.835Z,99698.36
2023-01-10T03:47:16.801Z,99703.27
2023-01-10T03:52:21.074Z,99704.85
2023-01-10T03:57:24.982Z,99715.88
2023-01-10T04:02:32.778Z,99724.68
2023-01-10T04:07:38.156Z,99732.45
2023-01-10T04:12:42.375Z,99735.13
2023-01-10T04:17:46.195Z,99745.23
2023-01-10T04:22:51.647Z,99745.73
2023-01-10T04:27:58.390Z,99752.52
2023-01-10T04:33:02.103Z,99764.48
2023-01-10T04:38:09.175Z,99778.52
2023-01-10T04:43:13.052Z,99787.48
2023-01-10T04:48:16.999Z,99798.83
2023-01-10T04:53:21.514Z,99808.52
2023-01-10T04:58:28.302Z,99817.52
2023-01-10T05:03:32.013Z,99825.83
2023-01-10T05:08:40.793Z,99833.59
2023-01-10T05:13:46.502Z,99838.87
2023-01-10T05:18:51.459Z,99845.27
2023-01-10T05:23:55.171Z,99848.00
2023-01-10T05:28:58.926Z,99857.95
2023-01-10T05:34:02.921Z,99872.11
2023-01-10T05:39:06.764Z,99876.30
2023-01-10T05:44:10.973Z,99883.72
2023-01-10T05:49:14.809Z,99894.08
2023-01-10T05:54:19.461Z,99901.05
2023-01-10T05:59:30.878Z,99910.18
2023-01-10T06:04:35.700Z,99917.83
2023-01-10T06:09:40.359Z,99930.92
2023-01-10T06:14:45.459Z,99941.95
2023-01-10T06:19:49.499Z,99945.23
2023-01-10T06:24:56.822Z,99957.36
2023-01-10T06:30:04.799Z,99971.44
2023-01-10T06:35:10.282Z,99981.23
2023-01-10T06:40:14.109Z,99992.00
2023-01-10T06:45:18.017Z,100003.56
2023-01-10T06:50:24.318Z,100014.17
2023-01-10T06:55:28.957Z,100032.96
2023-01-10T07:00:33.959Z,100048.53
2023-01-10T07:05:37.788Z,100053.80
2023-01-10T07:10:43.558Z,100064.91
2023-01-10T07:15:47.334Z,100071.42
2023-01-10T07:20:51.392Z,100080.98
2023-01-10T07:25:55.347Z,100085.70
2023-01-10T07:31:00.692Z,100090.35
2023-01-10T07:36:06.977Z,100095.66
2023-01-10T07:41:13.263Z,100106.08
2023-01-10T07:46:18.212Z,100115.77
2023-01-10T07:51:22.623Z,100125.17
2023-01-10T07:56:26.373Z,100132.77
2023-01-10T08:01:30.776Z,100140.63
2023-01-10T08:06:34.799Z,100144.42
2023-01-10T08:11:41.439Z,100158.70
2023-01-10T08:16:48.939Z,100158.17
2023-01-10T08:21:52.760Z,100172.41
2023-01-10T08:26:59.753Z,100181.07
2023-01-10T08:32:03.580Z,100191.75
2023-01-10T08:37:10.490Z,100191.92
2023-01-10T08:42:14.680Z,100190.05
2023-01-10T08:47:19.421Z,100197.56
2023-01-10T08:52:24.899Z,100199.86
2023-01-10T08:57:28.769Z,100202.98
2023-01-10T09:02:32.667Z,100209.98
2023-01-10T09:07:42.921Z,100217.81
2023-01-10T09:12:55.405Z,100222.23
2023-01-10T09:18:02.262Z,100232.02
2023-01-10T09:23:11.725Z,100240.88
2023-01-10T09:28:16.983Z,100246.37
2023-01-10T09:33:21.224Z,100254.42
2023-01-10T09:38:25.153Z,100259.20
2023-01-10T09:43:34.784Z,100265.56
2023-01-10T09:49:01.966Z,100269.21
2023-01-10T09:54:12.847Z,100274.27
2023-01-10T09:59:33.399Z,100280.75
2023-01-10T10:04:40.657Z,100295.91
2023-01-10T10:09:45.105Z,100302.21
2023-01-10T10:15:28.135Z,100306.02
2023-01-10T10:21:39.537Z,100312.23
2023-01-10T10:26:58.221Z,100316.60
2023-01-10T10:32:40.953Z,100320.91
2023-01-10T10:37:50.952Z,100330.88
2023-01-10T10:42:56.996Z,100330.34
2023-01-10T10:48:26.771Z,100330.20
2023-01-10T10:53:34.111Z,100336.55
2023-01-10T10:58:40.853Z,100340.60
2023-01-10T11:03:58.429Z,100337.60
2023-01-10T11:09:05.491Z,100331.11
2023-01-10T11:14:09.827Z,100327.34
2023-01-10T11:19:27.931Z,100325.56
2023-01-10T11:24:37.726Z,100328.66
2023-01-10T11:29:48.562Z,100331.96
2023-01-10T11:35:02.708Z,100329.16
2023-01-10T11:40:27.571Z,100347.27
2023-01-10T11:45:34.736Z,100347.58
2023-01-10T11:50:45.377Z,100343.86
2023-01-10T11:55:56.039Z,100352.84
2023-01-10T12:00:59.815Z,100365.41
2023-01-10T12:06:08.755Z,100371.64
2023-01-10T12:11:38.990Z,100370.27
2023-01-10T12:16:43.289Z,100384.62
2023-01-10T12:21:47.863Z,100389.35
2023-01-10T12:26:54.301Z,100385.06
2023-01-10T12:31:59.363Z,100396.22
2023-01-10T12:37:15.333Z,100402.52
2023-01-10T12:42:46.603Z,100413.33
2023-01-10T12:47:56.443Z,100418.55
2023-01-10T12:53:09.713Z,100427.29
2023-01-10T12:58:22.635Z,100432.35
2023-01-10T13:03:31.799Z,100435.46
2023-01-10T13:08:38.859Z,100450.66
2023-01-10T13:13:52.417Z,100456.65
2023-01-10T13:19:31.998Z,100456.48
2023-01-10T13:24:35.738Z,100457.04
2023-01-10T13:29:42.463Z,100471.38
2023-01-10T13:34:46.506Z,100481.10
2023-01-10T13:40:01.195Z,100488.92
2023-01-10T13:45:26.352Z,100498.44
2023-01-10T13:50:45.315Z,100508.14
2023-01-10T13:56:28.874Z,100512.93
2023-01-10T14:01:56.816Z,100520.78
2023-01-10T14:07:14.955Z,100529.30
2023-01-10T14:12:22.124Z,100540.31
2023-01-10T14:17:29.064Z,100538.93
2023-01-10T14:22:36.073Z,100543.90
2023-01-10T14:27:49.652Z,100544.66
2023-01-10T14:32:58.038Z,100549.09
2023-01-10T14:38:05.964Z,100551.86
2023-01-10T14:43:15.124Z,100560.29
2023-01-10T14:48:30.315Z,100564.09
2023-01-10T14:53:34.847Z,100561.45
2023-01-10T14:58:38.640Z,100568.38
2023-01-10T15:03:48.309Z,100574.67
2023-01-10T15:09:00.467Z,100581.46
2023-01-10T15:14:08.661Z,100591.30
2023-01-10T15:19:23.321Z,100594.59
2023-01-10T15:24:34.521Z,100600.77
2023-01-10T15:29:44.904Z,100597.91
2023-01-10T15:34:51.914Z,100604.86
2023-01-10T15:39:56.070Z,100616.15
2023-01-10T15:45:38.506Z,100618.74
2023-01-10T15:50:55.451Z,100621.41
2023-01-10T15:56:10.939Z,100623.60
2023-01-10T16:01:16.230Z,100621.42
2023-01-10T16:06:23.600Z,100626.80
2023-01-10T16:12:10.348Z,100637.67
2023-01-10T16:17:14.691Z,100643.52
2023-01-10T16:22:19.773Z,100655.11
2023-01-10T16:27:23.516Z,100649.61
2023-01-10T16:32:27.503Z,100648.73
2023-01-10T16:37:31.532Z,100649.03
2023-01-10T16:42:54.043Z,100650.52
2023-01-10T16:47:57.817Z,100658.14
2023-01-10T16:53:01.665Z,100657.54
2023-01-10T16:58:05.662Z,100655.83
2023-01-10T17:03:14.682Z,100656.84
2023-01-10T17:08:22.072Z,100676.20
2023-01-10T17:13:32.855Z,100688.15
2023-01-10T17:18:39.609Z,100694.92
2023-01-10T17:23:43.676Z,100706.70
2023-01-10T17:28:50.024Z,100712.98
2023-01-10T17:33:55.087Z,100715.86
2023-01-10T17:38:59.941Z,100716.83
2023-01-10T17:44:03.793Z,100710.85
2023-01-10T17:49:07.597Z,100714.35
2023-01-10T17:54:11.909Z,100713.12
2023-01-10T17:59:15.729Z,100710.14
2023-01-10T18:04:20.066Z,100718.77
2023-01-10T18:09:24.533Z,100733.98
2023-01-10T18:14:37.475Z,100736.08
2023-01-10T18:19:41.315Z,100749.24
2023-01-10T18:24:47.427Z,100749.70
2023-01-10T18:29:52.499Z,100747.23
2023-01-10T18:34:56.424Z,100752.56
2023-01-10T18:40:06.338Z,100761.06
2023-01-10T18:45:13.277Z,100758.59
2023-01-10T18:50:18.668Z,100765.06
2023-01-10T18:55:23.880Z,100760.15
2023-01-10T19:00:31.054Z,100759.73
2023-01-10T19:05:35.773Z,100768.69
2023-01-10T19:11:03.624Z,100774.09
2023-01-10T19:16:32.767Z,100772.81
2023-01-10T19:21:43.893Z,100769.48
2023-01-10T19:26:49.025Z,100773.58
2023-01-10T19:31:55.427Z,100777.87
2023-01-10T19:37:03.098Z,100779.34
2023-01-10T19:42:08.485Z,100774.42
2023-01-10T19:47:13.174Z,100776.75
2023-01-10T19:52:20.554Z,100771.66
2023-01-10T19:57:26.112Z,100774.16
2023-01-10T20:02:30.974Z,100776.90
2023-01-10T20:07:35.438Z,100774.17
2023-01-10T20:12:41.033Z,100779.64
2023-01-10T20:17:47.870Z,100782.23
2023-01-10T20:22:55.390Z,100787.53
2023-01-10T20:27:59.820Z,100789.00
2023-01-10T20:33:04.316Z,100791.32
2023-01-10T20:38:12.408Z,100791.25
2023-01-10T20:43:18.025Z,100784.16
2023-01-10T20:48:24.908Z,100782.48
2023-01-10T20:53:29.272Z,100780.70
2023-01-10T20:58:35.332Z,100775.50
2023-01-10T21:03:43.681Z,100773.08
2023-01-10T21:08:49.461Z,100771.27
2023-01-10T21:13:53.870Z,100768.60
2023-01-10T21:19:02.041Z,100766.88
2023-01-10T21:24:06.123Z,100767.32
2023-01-10T21:29:12.207Z,100772.02
2023-01-10T21:34:16.740Z,100769.89
2023-01-10T21:39:20.461Z,100775.33
2023-01-10T21:44:26.294Z,100776.69
2023-01-10T21:49:31.009Z,100777.71
2023-01-10T21:54:52.344Z,100774.34
2023-01-10T21:59:56.062Z,100775.46
2023-01-10T22:04:59.705Z,100773.78
2023-01-10T22:10:08.157Z,100769.52
2023-01-10T22:15:12.597Z,100766.34
2023-01-10T22:20:17.409Z,100769.40
2023-01-10T22:25:21.737Z,100772.65
2023-01-10T22:30:26.017Z,100766.72
2023-01-10T22:35:30.272Z,100765.06
2023-01-10T22:40:35.077Z,100760.02
2023-01-10T22:45:44.290Z,100756.69
2023-01-10T22:50:50.337Z,100760.70
2023-01-10T22:55:55.378Z,100760.81
2023-01-10T23:01:04.778Z,100768.88
2023-01-10T23:06:09.364Z,100762.67
2023-01-10T23:11:18.718Z,100768.59
2023-01-10T23:16:29.040Z,100760.89
2023-01-10T23:21:33.221Z,100753.75
2023-01-10T23:26:36.993Z,100747.05
2023-01-10T23:31:40.895Z,100749.07
2023-01-10T23:36:44.590Z,100747.83
2023-01-10T23:41:48.275Z,100742.16
2023-01-10T23:46:51.872Z,100742.08
2023-01-10T23:51:55.795Z,100736.32
2023-01-10T23:57:00.324Z,100736.77
